Time;durP1;ratioP1;P1;durP2;ratioP2;P2;SDS_P1;SDS_P2;PMS_P1;PMS_P2;Temp;Humidity;BMP_temperature;BMP_pressure;BME280_temperature;BME280_humidity;BME280_pressure;Samples;Min_cycle;Max_cycle;Signal;HPM_P1;HPM_P2
2022/06/17 00:00:17;;;;;;;2.40;2.20;;;;;;;;;;5080195;28;20273;-59
2022/06/17 00:02:45;;;;;;;2.30;2.20;;;;;;;;;;5080618;28;20212;-59
2022/06/17 00:05:13;;;;;;;2.00;1.90;;;;;;;;;;5080286;28;20231;-60
2022/06/17 00:07:42;;;;;;;2.33;2.15;;;;;;;;;;5080367;28;20596;-60
2022/06/17 00:10:18;;;;;;;2.30;2.20;;;;;;;;;;5080056;28;20199;-60
2022/06/17 00:12:45;;;;;;;1.90;1.80;;;;;;;;;;5080216;28;20251;-60
2022/06/17 00:15:13;;;;;;;2.40;2.20;;;;;;;;;;5079870;28;20204;-60
2022/06/17 00:17:41;;;;;;;2.03;1.90;;;;;;;;;;5080363;28;20204;-59
2022/06/17 00:20:10;;;;;;;2.35;2.13;;;;;;;;;;5079606;28;20209;-59
2022/06/17 00:22:40;;;;;;;2.42;2.22;;;;;;;;;;5080255;28;20208;-60
2022/06/17 00:25:12;;;;;;;2.20;2.10;;;;;;;;;;5079403;28;20268;-59
2022/06/17 00:27:41;;;;;;;2.20;2.10;;;;;;;;;;5079693;28;20240;-59
2022/06/17 00:30:15;;;;;;;2.30;2.20;;;;;;;;;;5079680;28;20243;-60
2022/06/17 00:32:43;;;;;;;2.42;2.22;;;;;;;;;;5080481;28;20539;-60
2022/06/17 00:35:10;;;;;;;2.10;1.90;;;;;;;;;;5079496;28;20611;-60
2022/06/17 00:37:38;;;;;;;2.50;2.30;;;;;;;;;;5079271;28;20200;-60
2022/06/17 00:40:11;;;;;;;2.40;2.20;;;;;;;;;;5079999;28;20201;-60
2022/06/17 00:42:39;;;;;;;2.15;2.05;;;;;;;;;;5059575;28;20239;-59
2022/06/17 00:45:13;;;;;;;2.20;2.10;;;;;;;;;;5075967;28;20227;-59
2022/06/17 00:47:44;;;;;;;2.30;2.10;;;;;;;;;;5078832;28;20224;-59
2022/06/17 00:50:15;;;;;;;2.28;2.17;;;;;;;;;;5079802;28;20200;-59
2022/06/17 00:52:46;;;;;;;2.50;2.30;;;;;;;;;;5079728;28;20216;-59
2022/06/17 00:55:15;;;;;;;2.30;2.20;;;;;;;;;;5078934;28;20208;-60
2022/06/17 00:57:43;;;;;;;2.60;2.40;;;;;;;;;;5078751;28;20246;-59
2022/06/17 01:00:15;;;;;;;2.50;2.30;;;;;;;;;;5079364;28;20552;-61
2022/06/17 01:02:44;;;;;;;2.40;2.20;;;;;;;;;;5079232;28;20729;-61
2022/06/17 01:05:12;;;;;;;2.55;2.40;;;;;;;;;;5078092;28;20200;-59
2022/06/17 01:07:42;;;;;;;2.38;2.17;;;;;;;;;;5078217;28;20265;-59
2022/06/17 01:10:13;;;;;;;2.30;2.20;;;;;;;;;;5078213;28;20246;-59
2022/06/17 01:12:41;;;;;;;3.35;2.30;;;;;;;;;;5079067;28;20558;-60
2022/06/17 01:15:10;;;;;;;2.17;2.08;;;;;;;;;;5077753;28;20653;-60
2022/06/17 01:17:40;;;;;;;2.60;2.42;;;;;;;;;;5078047;28;20269;-59
2022/06/17 01:20:08;;;;;;;2.47;2.30;;;;;;;;;;5078295;28;20200;-60
2022/06/17 01:22:42;;;;;;;2.40;2.20;;;;;;;;;;5078729;28;20235;-59
2022/06/17 01:25:10;;;;;;;2.65;2.28;;;;;;;;;;5078031;28;20266;-60
2022/06/17 01:27:40;;;;;;;2.50;2.30;;;;;;;;;;5078523;28;20545;-60
2022/06/17 01:30:08;;;;;;;2.25;2.15;;;;;;;;;;5078227;28;20277;-60
2022/06/17 01:32:39;;;;;;;2.47;2.30;;;;;;;;;;5078467;28;20250;-59
2022/06/17 01:35:09;;;;;;;2.05;1.95;;;;;;;;;;5078079;28;20208;-59
2022/06/17 01:37:36;;;;;;;2.70;2.50;;;;;;;;;;5078386;28;20278;-60
2022/06/17 01:40:06;;;;;;;2.03;1.92;;;;;;;;;;5078042;28;20254;-60
2022/06/17 01:42:35;;;;;;;2.50;2.30;;;;;;;;;;5078074;28;20333;-59
2022/06/17 01:45:02;;;;;;;2.38;2.17;;;;;;;;;;5078158;28;20236;-59
2022/06/17 01:47:31;;;;;;;2.55;2.17;;;;;;;;;;5077394;28;20216;-61
2022/06/17 01:50:00;;;;;;;2.40;2.20;;;;;;;;;;5078191;28;20207;-59
2022/06/17 01:52:29;;;;;;;2.35;2.15;;;;;;;;;;5078649;28;20239;-59
2022/06/17 01:55:00;;;;;;;1.92;1.83;;;;;;;;;;5078616;28;20227;-60
2022/06/17 01:57:33;;;;;;;2.17;2.08;;;;;;;;;;5077891;28;20706;-60
2022/06/17 02:00:02;;;;;;;2.33;2.22;;;;;;;;;;5077801;28;20208;-60
2022/06/17 02:02:31;;;;;;;2.20;2.10;;;;;;;;;;5077773;28;20212;-59
2022/06/17 02:05:00;;;;;;;2.22;2.05;;;;;;;;;;5077863;28;20200;-59
2022/06/17 02:07:29;;;;;;;2.30;2.20;;;;;;;;;;5077542;28;20224;-59
2022/06/17 02:09:57;;;;;;;2.47;2.28;;;;;;;;;;5077563;28;20333;-59
2022/06/17 02:12:27;;;;;;;2.38;2.22;;;;;;;;;;5077756;28;20212;-59
2022/06/17 02:14:57;;;;;;;2.03;1.92;;;;;;;;;;5077282;28;20468;-59
2022/06/17 02:17:26;;;;;;;2.42;2.22;;;;;;;;;;5076611;28;20216;-59
2022/06/17 02:19:53;;;;;;;2.25;2.08;;;;;;;;;;5077950;28;20486;-59
2022/06/17 02:22:24;;;;;;;2.03;1.92;;;;;;;;;;5078112;28;20289;-60
2022/06/17 02:24:52;;;;;;;2.50;2.30;;;;;;;;;;5077520;28;20208;-60
2022/06/17 02:27:20;;;;;;;2.42;2.33;;;;;;;;;;5077742;28;20227;-60
2022/06/17 02:29:48;;;;;;;2.63;2.42;;;;;;;;;;5077107;28;20266;-59
2022/06/17 02:32:18;;;;;;;2.25;2.15;;;;;;;;;;5078040;28;20450;-60
2022/06/17 02:34:50;;;;;;;2.30;2.10;;;;;;;;;;5077761;28;20773;-60
2022/06/17 02:37:18;;;;;;;2.00;1.90;;;;;;;;;;5077628;28;20205;-60
2022/06/17 02:39:47;;;;;;;2.17;1.98;;;;;;;;;;5077654;28;20402;-59
2022/06/17 02:42:17;;;;;;;2.15;2.05;;;;;;;;;;5077998;28;20216;-60
2022/06/17 02:44:46;;;;;;;2.17;1.98;;;;;;;;;;5076822;28;20224;-59
2022/06/17 02:47:13;;;;;;;2.38;2.22;;;;;;;;;;5076839;28;20227;-59
2022/06/17 02:49:43;;;;;;;2.22;2.03;;;;;;;;;;5077551;28;20258;-60
2022/06/17 02:52:13;;;;;;;2.38;2.20;;;;;;;;;;5077221;28;20208;-60
2022/06/17 02:54:42;;;;;;;2.33;2.05;;;;;;;;;;5076951;28;20266;-59
2022/06/17 02:57:10;;;;;;;1.85;1.75;;;;;;;;;;5078024;28;20228;-59
2022/06/17 02:59:40;;;;;;;2.28;2.10;;;;;;;;;;5060067;28;20207;-60
2022/06/17 03:02:13;;;;;;;2.25;2.10;;;;;;;;;;5077496;28;20204;-59
2022/06/17 03:04:44;;;;;;;2.40;2.03;;;;;;;;;;5077456;28;20234;-59
2022/06/17 03:07:13;;;;;;;2.17;1.98;;;;;;;;;;5077388;28;20669;-60
2022/06/17 03:09:41;;;;;;;2.30;2.10;;;;;;;;;;5077931;28;20626;-59
2022/06/17 03:12:10;;;;;;;1.80;1.70;;;;;;;;;;5077192;28;20240;-59
2022/06/17 03:14:42;;;;;;;2.20;2.00;;;;;;;;;;5077335;28;20238;-59
2022/06/17 03:17:12;;;;;;;2.42;2.25;;;;;;;;;;5077548;28;20235;-60
2022/06/17 03:19:39;;;;;;;2.33;2.17;;;;;;;;;;5076628;28;20204;-60
2022/06/17 03:22:13;;;;;;;2.45;2.17;;;;;;;;;;5077185;28;20269;-60
2022/06/17 03:24:43;;;;;;;2.17;1.90;;;;;;;;;;5077388;28;20205;-59
2022/06/17 03:27:13;;;;;;;3.40;2.10;;;;;;;;;;5077237;28;20319;-60
2022/06/17 03:29:44;;;;;;;1.80;1.70;;;;;;;;;;5076653;28;20204;-60
2022/06/17 03:32:15;;;;;;;1.90;1.80;;;;;;;;;;5079650;28;20240;-59
2022/06/17 03:34:45;;;;;;;2.00;1.90;;;;;;;;;;5080525;28;20329;-59
2022/06/17 03:37:17;;;;;;;1.83;1.73;;;;;;;;;;5080700;28;20240;-60
2022/06/17 03:39:47;;;;;;;2.08;1.98;;;;;;;;;;5080447;28;20212;-59
2022/06/17 03:42:16;;;;;;;1.92;1.80;;;;;;;;;;5080920;28;20254;-60
2022/06/17 03:44:46;;;;;;;1.98;1.88;;;;;;;;;;5080885;28;20253;-60
2022/06/17 03:47:17;;;;;;;1.70;1.50;;;;;;;;;;5080351;28;20268;-59
2022/06/17 03:49:45;;;;;;;2.20;2.00;;;;;;;;;;5080988;28;20236;-59
2022/06/17 03:52:18;;;;;;;2.05;1.95;;;;;;;;;;5080647;28;20532;-59
2022/06/17 03:54:46;;;;;;;2.20;2.10;;;;;;;;;;5080330;28;20299;-60
2022/06/17 03:57:16;;;;;;;2.00;1.90;;;;;;;;;;5080330;28;20540;-59
2022/06/17 03:59:45;;;;;;;1.90;1.80;;;;;;;;;;5080836;28;20550;-59
2022/06/17 04:02:14;;;;;;;2.20;2.00;;;;;;;;;;5079989;28;20746;-60
2022/06/17 04:04:42;;;;;;;2.00;1.90;;;;;;;;;;5080760;28;20320;-59
2022/06/17 04:07:11;;;;;;;2.38;2.00;;;;;;;;;;5079662;28;20313;-59
2022/06/17 04:09:42;;;;;;;2.10;1.95;;;;;;;;;;5079928;28;20243;-59
2022/06/17 04:12:19;;;;;;;2.13;2.03;;;;;;;;;;5079194;28;20248;-59
2022/06/17 04:14:50;;;;;;;1.90;1.80;;;;;;;;;;5079301;28;20210;-61
2022/06/17 04:17:20;;;;;;;1.90;1.80;;;;;;;;;;5079616;28;20235;-59
2022/06/17 04:19:52;;;;;;;2.65;1.70;;;;;;;;;;5079284;28;20270;-60
2022/06/17 04:22:21;;;;;;;1.95;1.85;;;;;;;;;;5079342;28;20216;-59
2022/06/17 04:24:53;;;;;;;2.28;1.88;;;;;;;;;;5079236;28;20297;-60
2022/06/17 04:27:21;;;;;;;2.05;1.95;;;;;;;;;;5078972;28;20270;-59
2022/06/17 04:29:52;;;;;;;1.95;1.85;;;;;;;;;;5078662;28;20216;-60
2022/06/17 04:32:23;;;;;;;1.90;1.80;;;;;;;;;;5078329;28;20200;-59
2022/06/17 04:34:50;;;;;;;2.47;1.88;;;;;;;;;;5078277;28;20276;-60
2022/06/17 04:37:20;;;;;;;2.20;1.90;;;;;;;;;;5077721;28;20291;-62
2022/06/17 04:39:49;;;;;;;2.05;1.95;;;;;;;;;;5076382;28;20208;-59
2022/06/17 04:42:20;;;;;;;3.30;1.85;;;;;;;;;;5076762;28;20204;-59
2022/06/17 04:44:48;;;;;;;2.08;1.98;;;;;;;;;;5057029;28;20650;-59
2022/06/17 04:47:18;;;;;;;2.20;2.00;;;;;;;;;;5056819;28;20221;-59
2022/06/17 04:49:47;;;;;;;2.08;1.95;;;;;;;;;;5075506;28;20241;-60
2022/06/17 04:52:22;;;;;;;2.30;2.10;;;;;;;;;;5074149;28;20200;-60
2022/06/17 04:54:50;;;;;;;2.22;2.03;;;;;;;;;;5076396;28;20230;-60
2022/06/17 04:57:19;;;;;;;1.95;1.85;;;;;;;;;;5076394;28;20210;-64
2022/06/17 04:59:47;;;;;;;2.33;2.15;;;;;;;;;;5076352;28;20739;-60
2022/06/17 05:02:21;;;;;;;2.03;1.92;;;;;;;;;;5076627;28;20215;-60
2022/06/17 05:04:50;;;;;;;2.20;2.00;;;;;;;;;;5076157;28;20615;-60
2022/06/17 05:07:19;;;;;;;1.95;1.85;;;;;;;;;;5075095;28;20452;-60
2022/06/17 05:09:48;;;;;;;2.20;2.10;;;;;;;;;;5076187;28;20205;-60
2022/06/17 05:12:18;;;;;;;2.28;2.17;;;;;;;;;;5074280;28;20283;-60
2022/06/17 05:14:52;;;;;;;2.08;1.98;;;;;;;;;;5076035;28;20197;-60
2022/06/17 05:17:19;;;;;;;2.38;2.22;;;;;;;;;;5075940;28;20200;-59
2022/06/17 05:19:48;;;;;;;2.50;2.40;;;;;;;;;;5076637;28;20211;-59
2022/06/17 05:22:19;;;;;;;2.13;1.95;;;;;;;;;;5075236;28;20212;-60
2022/06/17 05:24:46;;;;;;;2.35;2.20;;;;;;;;;;5074901;28;20216;-60
2022/06/17 05:27:13;;;;;;;2.45;2.25;;;;;;;;;;5075087;28;20260;-60
2022/06/17 05:29:41;;;;;;;2.20;2.10;;;;;;;;;;5056479;28;20236;-60
2022/06/17 05:32:12;;;;;;;2.63;2.42;;;;;;;;;;5056765;28;20593;-60
2022/06/17 05:34:40;;;;;;;2.00;1.90;;;;;;;;;;5062940;28;20228;-60
2022/06/17 05:37:09;;;;;;;2.50;2.30;;;;;;;;;;5075516;28;20239;-60
2022/06/17 05:39:37;;;;;;;2.60;2.20;;;;;;;;;;5075199;28;20563;-60
2022/06/17 05:42:05;;;;;;;2.63;2.42;;;;;;;;;;5074264;28;20269;-60
2022/06/17 05:44:33;;;;;;;2.40;2.25;;;;;;;;;;5074357;28;20204;-60
2022/06/17 05:47:00;;;;;;;2.35;2.15;;;;;;;;;;5074538;28;20192;-60
2022/06/17 05:49:30;;;;;;;2.40;2.20;;;;;;;;;;5074960;28;20592;-60
2022/06/17 05:51:58;;;;;;;2.13;2.03;;;;;;;;;;5073561;28;20211;-60
2022/06/17 05:54:25;;;;;;;2.15;1.98;;;;;;;;;;5071974;28;20234;-60
2022/06/17 05:56:53;;;;;;;2.30;2.20;;;;;;;;;;5074245;28;20236;-60
2022/06/17 05:59:20;;;;;;;2.15;1.95;;;;;;;;;;5073842;28;20220;-60
2022/06/17 06:01:48;;;;;;;2.58;2.20;;;;;;;;;;5074197;28;20381;-60
2022/06/17 06:04:16;;;;;;;2.42;2.30;;;;;;;;;;5074760;28;20488;-60
2022/06/17 06:06:45;;;;;;;2.20;2.00;;;;;;;;;;5074958;28;20751;-61
2022/06/17 06:09:12;;;;;;;3.70;2.40;;;;;;;;;;5075243;28;20267;-60
2022/06/17 06:11:40;;;;;;;2.47;2.10;;;;;;;;;;5074361;28;20228;-60
2022/06/17 06:14:07;;;;;;;2.85;2.30;;;;;;;;;;5075497;28;20303;-59
2022/06/17 06:16:35;;;;;;;2.20;2.10;;;;;;;;;;5073811;28;20457;-60
2022/06/17 06:19:02;;;;;;;3.25;2.00;;;;;;;;;;5073195;28;20192;-60
2022/06/17 06:21:30;;;;;;;2.45;2.25;;;;;;;;;;5073768;28;20232;-60
2022/06/17 06:23:59;;;;;;;2.90;1.90;;;;;;;;;;5073460;28;20211;-60
2022/06/17 06:26:26;;;;;;;2.10;2.00;;;;;;;;;;5073866;28;20308;-59
2022/06/17 06:28:55;;;;;;;1.92;1.83;;;;;;;;;;5074128;28;20303;-59
2022/06/17 06:31:25;;;;;;;2.00;1.80;;;;;;;;;;5073573;28;20231;-59
2022/06/17 06:33:53;;;;;;;2.33;2.13;;;;;;;;;;5073846;28;20204;-60
2022/06/17 06:36:21;;;;;;;2.75;1.98;;;;;;;;;;5074435;28;20334;-59
2022/06/17 06:38:48;;;;;;;2.92;2.05;;;;;;;;;;5073493;28;20204;-60
2022/06/17 06:41:20;;;;;;;2.08;1.95;;;;;;;;;;5073995;28;20659;-59
2022/06/17 06:43:47;;;;;;;2.30;2.10;;;;;;;;;;5073525;28;20234;-59
2022/06/17 06:46:15;;;;;;;2.42;2.22;;;;;;;;;;5073177;28;20647;-61
2022/06/17 06:48:43;;;;;;;2.28;2.03;;;;;;;;;;5074231;28;20263;-59
2022/06/17 06:51:10;;;;;;;2.92;1.80;;;;;;;;;;5072706;28;20298;-61
2022/06/17 06:53:38;;;;;;;2.20;2.00;;;;;;;;;;5072282;28;20231;-60
2022/06/17 06:56:06;;;;;;;3.17;2.20;;;;;;;;;;5073650;28;20196;-61
2022/06/17 06:58:36;;;;;;;2.00;1.83;;;;;;;;;;5071528;28;20197;-60
2022/06/17 07:01:03;;;;;;;2.88;1.58;;;;;;;;;;5073655;28;20208;-59
2022/06/17 07:03:31;;;;;;;2.85;1.70;;;;;;;;;;5073520;28;20547;-61
2022/06/17 07:06:00;;;;;;;2.00;1.80;;;;;;;;;;5073472;28;20199;-60
2022/06/17 07:08:30;;;;;;;2.20;1.73;;;;;;;;;;5076257;28;20264;-59
2022/06/17 07:10:59;;;;;;;3.92;1.83;;;;;;;;;;5075581;28;20228;-60
2022/06/17 07:13:29;;;;;;;2.05;1.75;;;;;;;;;;5076378;28;20228;-60
2022/06/17 07:15:58;;;;;;;2.13;1.70;;;;;;;;;;5069639;28;20211;-59
2022/06/17 07:18:27;;;;;;;1.52;1.42;;;;;;;;;;5055838;28;20684;-62
2022/06/17 07:20:55;;;;;;;1.55;1.45;;;;;;;;;;5055562;28;20254;-59
2022/06/17 07:23:23;;;;;;;2.33;1.67;;;;;;;;;;5056608;28;20665;-59
2022/06/17 07:25:51;;;;;;;2.17;1.60;;;;;;;;;;5056484;28;20244;-59
2022/06/17 07:28:20;;;;;;;1.80;1.70;;;;;;;;;;5056620;28;20302;-59
2022/06/17 07:30:49;;;;;;;2.08;1.48;;;;;;;;;;5056539;28;20244;-59
2022/06/17 07:33:19;;;;;;;1.92;1.65;;;;;;;;;;5055462;28;20240;-61
2022/06/17 07:35:47;;;;;;;1.98;1.52;;;;;;;;;;5055547;28;20599;-61
2022/06/17 07:41:00;;;;;;;1.60;1.50;;;;;;;;;;5056035;28;20193;-60
2022/06/17 07:43:27;;;;;;;2.75;1.48;;;;;;;;;;5075532;28;20295;-60
2022/06/17 07:45:55;;;;;;;1.55;1.40;;;;;;;;;;5078023;28;20205;-59
2022/06/17 07:48:24;;;;;;;1.40;1.30;;;;;;;;;;5077651;28;20275;-59
2022/06/17 07:50:52;;;;;;;1.83;1.70;;;;;;;;;;5077989;28;20279;-59
2022/06/17 07:53:20;;;;;;;1.85;1.40;;;;;;;;;;5075999;28;20192;-59
2022/06/17 07:55:48;;;;;;;1.30;1.20;;;;;;;;;;5075265;28;20301;-59
2022/06/17 07:58:16;;;;;;;1.52;1.42;;;;;;;;;;5076542;28;20196;-59
2022/06/17 08:00:44;;;;;;;2.03;1.60;;;;;;;;;;5075834;28;20295;-59
2022/06/17 08:03:13;;;;;;;1.50;1.40;;;;;;;;;;5075985;28;20261;-61
2022/06/17 08:05:43;;;;;;;1.63;1.38;;;;;;;;;;5076385;28;20201;-59
2022/06/17 08:08:11;;;;;;;1.50;1.40;;;;;;;;;;5075765;28;20222;-61
2022/06/17 08:10:39;;;;;;;1.55;1.30;;;;;;;;;;5076609;28;20263;-61
2022/06/17 08:13:06;;;;;;;1.17;1.10;;;;;;;;;;5075226;28;20208;-61
2022/06/17 08:15:34;;;;;;;2.20;1.30;;;;;;;;;;5075387;28;20208;-61
2022/06/17 08:18:03;;;;;;;2.25;1.45;;;;;;;;;;5075599;28;20228;-61
2022/06/17 08:20:32;;;;;;;1.45;1.35;;;;;;;;;;5075580;28;20238;-61
2022/06/17 08:23:02;;;;;;;1.65;1.30;;;;;;;;;;5075293;28;20208;-61
2022/06/17 08:25:29;;;;;;;2.13;1.40;;;;;;;;;;5075613;28;20291;-61
2022/06/17 08:27:58;;;;;;;1.40;1.30;;;;;;;;;;5075550;28;20392;-61
2022/06/17 08:30:26;;;;;;;1.48;1.38;;;;;;;;;;5075680;28;20598;-61
2022/06/17 08:32:55;;;;;;;2.33;1.40;;;;;;;;;;5075006;28;20641;-61
2022/06/17 08:35:24;;;;;;;1.75;1.58;;;;;;;;;;5076459;28;20564;-61
2022/06/17 08:37:54;;;;;;;1.50;1.40;;;;;;;;;;5076520;28;20284;-61
2022/06/17 08:40:34;;;;;;;1.25;1.15;;;;;;;;;;5072934;28;20397;-61
2022/06/17 08:43:06;;;;;;;1.42;1.30;;;;;;;;;;5075596;28;20698;-62
2022/06/17 08:45:41;;;;;;;1.70;1.60;;;;;;;;;;5074589;28;20228;-61
2022/06/17 08:48:15;;;;;;;1.45;1.20;;;;;;;;;;5073826;28;20548;-61
2022/06/17 08:50:50;;;;;;;1.10;1.00;;;;;;;;;;5075607;28;20200;-61
2022/06/17 08:53:45;;;;;;;1.88;1.38;;;;;;;;;;5073973;28;20195;-62
2022/06/17 08:56:20;;;;;;;1.83;1.48;;;;;;;;;;5026301;28;20200;-61
2022/06/17 08:58:53;;;;;;;1.92;1.50;;;;;;;;;;5075171;28;20188;-61
2022/06/17 09:01:24;;;;;;;1.40;1.30;;;;;;;;;;5073878;28;20258;-61
2022/06/17 09:04:01;;;;;;;2.17;1.42;;;;;;;;;;5072878;28;20231;-61
2022/06/17 09:06:37;;;;;;;2.28;1.67;;;;;;;;;;5074329;28;20454;-61
2022/06/17 09:09:12;;;;;;;1.65;1.30;;;;;;;;;;5073568;28;20285;-61
2022/06/17 09:11:44;;;;;;;1.73;1.50;;;;;;;;;;5058488;28;20567;-60
2022/06/17 09:14:19;;;;;;;1.73;1.50;;;;;;;;;;5074918;28;20549;-59
2022/06/17 09:16:51;;;;;;;1.52;1.30;;;;;;;;;;5076017;28;20247;-60
2022/06/17 09:19:21;;;;;;;1.60;1.20;;;;;;;;;;5073608;28;20196;-59
2022/06/17 09:21:50;;;;;;;1.30;1.10;;;;;;;;;;5074990;28;20204;-59
2022/06/17 09:24:21;;;;;;;1.38;1.27;;;;;;;;;;5073875;28;20333;-59
2022/06/17 09:26:53;;;;;;;1.40;1.30;;;;;;;;;;5053659;28;20582;-62
2022/06/17 09:29:24;;;;;;;2.15;1.38;;;;;;;;;;5061403;28;20759;-59
2022/06/17 09:31:52;;;;;;;1.85;1.30;;;;;;;;;;5074860;28;20267;-59
2022/06/17 09:34:22;;;;;;;1.52;1.27;;;;;;;;;;5074590;28;20201;-60
2022/06/17 09:36:52;;;;;;;3.25;1.27;;;;;;;;;;5074678;28;20200;-59
2022/06/17 09:39:24;;;;;;;2.13;1.30;;;;;;;;;;5074755;28;20203;-59
2022/06/17 09:41:55;;;;;;;2.40;1.48;;;;;;;;;;5074694;28;20265;-59
2022/06/17 09:44:25;;;;;;;2.33;1.17;;;;;;;;;;5074421;28;20266;-59
2022/06/17 09:46:55;;;;;;;1.63;1.48;;;;;;;;;;5073871;28;20301;-59
2022/06/17 09:49:25;;;;;;;1.38;1.27;;;;;;;;;;5072073;28;20395;-59
2022/06/17 09:51:55;;;;;;;1.40;1.25;;;;;;;;;;5073016;28;20206;-59
2022/06/17 09:54:27;;;;;;;1.48;1.38;;;;;;;;;;5072735;28;20213;-59
2022/06/17 09:56:59;;;;;;;1.40;1.30;;;;;;;;;;5073692;28;20265;-59
2022/06/17 09:59:29;;;;;;;3.10;1.27;;;;;;;;;;5072753;28;20208;-59
2022/06/17 10:01:57;;;;;;;1.10;1.00;;;;;;;;;;5071542;28;20201;-59
2022/06/17 10:04:25;;;;;;;1.33;1.00;;;;;;;;;;5071528;28;20603;-59
2022/06/17 10:06:59;;;;;;;1.83;1.30;;;;;;;;;;5071882;28;20429;-59
2022/06/17 10:09:33;;;;;;;1.90;1.23;;;;;;;;;;5071287;28;20481;-59
2022/06/17 10:12:04;;;;;;;1.17;1.08;;;;;;;;;;5073275;28;20574;-59
2022/06/17 10:14:41;;;;;;;1.50;1.40;;;;;;;;;;5071859;28;20305;-59
2022/06/17 10:20:04;;;;;;;1.30;1.20;;;;;;;;;;5072047;28;20415;-59
2022/06/17 10:22:43;;;;;;;1.30;1.10;;;;;;;;;;5071269;28;20192;-59
2022/06/17 10:25:23;;;;;;;1.38;1.20;;;;;;;;;;5071447;28;20234;-59
2022/06/17 10:27:58;;;;;;;1.45;1.10;;;;;;;;;;5072180;28;20245;-59
2022/06/17 10:30:31;;;;;;;1.10;1.00;;;;;;;;;;5071917;28;20236;-59
2022/06/17 10:32:59;;;;;;;1.48;1.20;;;;;;;;;;5070540;28;20208;-59
2022/06/17 10:35:28;;;;;;;1.50;1.13;;;;;;;;;;5071716;28;20660;-59
2022/06/17 10:37:57;;;;;;;1.35;1.20;;;;;;;;;;5071733;28;20519;-59
2022/06/17 10:40:27;;;;;;;1.38;1.27;;;;;;;;;;5072124;28;20208;-59
2022/06/17 10:42:57;;;;;;;1.83;1.30;;;;;;;;;;5068190;28;20242;-59
2022/06/17 10:45:26;;;;;;;3.45;1.23;;;;;;;;;;5070316;28;20204;-59
2022/06/17 10:47:56;;;;;;;1.30;1.15;;;;;;;;;;5070011;28;20207;-60
2022/06/17 10:50:24;;;;;;;1.20;1.10;;;;;;;;;;5070768;28;20309;-59
2022/06/17 10:52:55;;;;;;;1.33;1.10;;;;;;;;;;5071116;28;20267;-59
2022/06/17 10:55:26;;;;;;;1.10;1.10;;;;;;;;;;5070931;28;20200;-60
2022/06/17 10:58:14;;;;;;;1.27;1.17;;;;;;;;;;5071940;28;20236;-59
2022/06/17 11:00:47;;;;;;;1.20;1.10;;;;;;;;;;5065858;28;20686;-59
2022/06/17 11:03:19;;;;;;;1.27;1.13;;;;;;;;;;5071076;28;20200;-59
2022/06/17 11:05:53;;;;;;;3.30;1.10;;;;;;;;;;5051250;28;20245;-59
2022/06/17 11:08:23;;;;;;;1.15;1.05;;;;;;;;;;5059613;28;20201;-60
2022/06/17 11:10:55;;;;;;;1.58;1.20;;;;;;;;;;5073576;28;20240;-59
2022/06/17 11:13:25;;;;;;;1.25;0.90;;;;;;;;;;5074498;28;20208;-60
2022/06/17 11:15:57;;;;;;;1.67;1.10;;;;;;;;;;5072380;28;20210;-59
2022/06/17 11:18:26;;;;;;;0.80;0.80;;;;;;;;;;5072309;28;20200;-59
2022/06/17 11:20:55;;;;;;;1.00;0.90;;;;;;;;;;5070329;28;20441;-59
2022/06/17 11:23:24;;;;;;;1.63;1.10;;;;;;;;;;5071383;28;20274;-59
2022/06/17 11:25:55;;;;;;;1.17;0.90;;;;;;;;;;5071346;28;20260;-59
2022/06/17 11:28:24;;;;;;;1.10;1.00;;;;;;;;;;5071694;28;20197;-59
2022/06/17 11:30:54;;;;;;;1.17;1.08;;;;;;;;;;5071878;28;20228;-59
2022/06/17 11:33:23;;;;;;;1.27;0.98;;;;;;;;;;5070734;28;20228;-61
2022/06/17 11:35:59;;;;;;;1.08;1.00;;;;;;;;;;5071021;28;20227;-59
2022/06/17 11:38:27;;;;;;;1.23;1.10;;;;;;;;;;5069821;28;20376;-59
2022/06/17 11:40:56;;;;;;;1.10;1.00;;;;;;;;;;5070618;28;20211;-59
2022/06/17 11:43:25;;;;;;;1.08;1.00;;;;;;;;;;5071178;28;20592;-59
2022/06/17 11:45:55;;;;;;;2.65;0.95;;;;;;;;;;5071092;28;20654;-59
2022/06/17 11:48:25;;;;;;;1.15;0.95;;;;;;;;;;5070093;28;20487;-59
2022/06/17 11:51:04;;;;;;;1.02;1.00;;;;;;;;;;5070688;28;20228;-59
2022/06/17 11:53:32;;;;;;;1.55;1.13;;;;;;;;;;5059225;28;20253;-59
2022/06/17 11:56:00;;;;;;;1.05;0.95;;;;;;;;;;5075872;28;20303;-59
2022/06/17 11:58:28;;;;;;;1.35;1.10;;;;;;;;;;5075350;28;20270;-60
2022/06/17 12:00:58;;;;;;;0.95;0.90;;;;;;;;;;5075253;28;20691;-59
2022/06/17 12:03:41;;;;;;;1.20;1.10;;;;;;;;;;5073770;28;20437;-59
2022/06/17 12:06:21;;;;;;;1.17;1.08;;;;;;;;;;5074801;28;20459;-59
2022/06/17 12:08:50;;;;;;;1.08;0.93;;;;;;;;;;5074930;28;20203;-59
2022/06/17 12:11:21;;;;;;;1.27;1.13;;;;;;;;;;5075212;28;20285;-59
2022/06/17 12:13:51;;;;;;;1.05;0.95;;;;;;;;;;5075300;28;20291;-60
2022/06/17 12:16:23;;;;;;;1.00;1.00;;;;;;;;;;5074972;28;20200;-59
2022/06/17 12:18:52;;;;;;;1.40;1.00;;;;;;;;;;5073574;28;20281;-59
2022/06/17 12:21:28;;;;;;;1.05;1.00;;;;;;;;;;5073422;28;20197;-59
2022/06/17 12:23:59;;;;;;;1.13;0.80;;;;;;;;;;5074928;28;20299;-59
2022/06/17 12:26:29;;;;;;;1.10;1.00;;;;;;;;;;5074038;28;20234;-60
2022/06/17 12:29:01;;;;;;;0.90;0.90;;;;;;;;;;5073304;28;20205;-59
2022/06/17 12:31:36;;;;;;;1.02;1.00;;;;;;;;;;5074655;28;20544;-59
2022/06/17 12:34:09;;;;;;;1.45;1.10;;;;;;;;;;5074080;28;20575;-59
2022/06/17 12:36:39;;;;;;;1.38;1.00;;;;;;;;;;5074339;28;20207;-59
2022/06/17 12:39:12;;;;;;;2.38;1.02;;;;;;;;;;5073211;28;20299;-59
2022/06/17 12:41:46;;;;;;;1.10;1.00;;;;;;;;;;5073652;28;20204;-59
2022/06/17 12:44:21;;;;;;;1.70;1.20;;;;;;;;;;5072627;28;20211;-59
2022/06/17 12:46:56;;;;;;;0.95;0.90;;;;;;;;;;5053598;28;20240;-59
2022/06/17 12:55:07;;;;;;;1.77;1.00;;;;;;;;;;5073293;28;20379;-59
2022/06/17 12:57:38;;;;;;;1.08;1.00;;;;;;;;;;5071592;28;20196;-59
2022/06/17 13:00:09;;;;;;;0.95;0.95;;;;;;;;;;5073175;28;20239;-59
2022/06/17 13:02:47;;;;;;;0.85;0.85;;;;;;;;;;5072966;28;20291;-59
2022/06/17 13:05:18;;;;;;;1.88;1.00;;;;;;;;;;5071858;28;20235;-59
2022/06/17 13:07:54;;;;;;;2.28;1.05;;;;;;;;;;5071722;28;20204;-59
2022/06/17 13:10:42;;;;;;;1.75;1.17;;;;;;;;;;5072035;28;20231;-59
2022/06/17 13:13:14;;;;;;;1.05;1.00;;;;;;;;;;5072965;28;20201;-60
2022/06/17 13:15:45;;;;;;;1.05;0.95;;;;;;;;;;5073024;28;20204;-60
2022/06/17 13:18:18;;;;;;;1.08;0.98;;;;;;;;;;5072717;28;20643;-59
2022/06/17 13:20:48;;;;;;;1.05;0.98;;;;;;;;;;5073331;28;20538;-59
2022/06/17 13:23:19;;;;;;;1.88;1.20;;;;;;;;;;5073806;28;20212;-59
2022/06/17 13:25:49;;;;;;;1.08;1.00;;;;;;;;;;5073601;28;20254;-58
2022/06/17 13:28:20;;;;;;;1.17;1.08;;;;;;;;;;5073176;28;20204;-57
2022/06/17 13:30:53;;;;;;;0.93;0.80;;;;;;;;;;5074194;28;20612;-57
2022/06/17 13:33:24;;;;;;;1.25;0.98;;;;;;;;;;5073368;28;20204;-58
2022/06/17 13:35:53;;;;;;;0.85;0.85;;;;;;;;;;5072706;28;20677;-58
2022/06/17 13:38:24;;;;;;;0.80;0.80;;;;;;;;;;5073487;28;20464;-57
2022/06/17 13:40:55;;;;;;;1.10;1.00;;;;;;;;;;5071619;28;20215;-58
2022/06/17 13:43:24;;;;;;;0.85;0.70;;;;;;;;;;5072320;28;20301;-58
2022/06/17 13:45:57;;;;;;;1.20;0.80;;;;;;;;;;5070868;28;20208;-58
2022/06/17 13:48:31;;;;;;;0.70;0.70;;;;;;;;;;5070272;28;20192;-58
2022/06/17 13:51:02;;;;;;;1.30;0.90;;;;;;;;;;5070414;28;20283;-58
2022/06/17 13:53:38;;;;;;;1.38;0.90;;;;;;;;;;5070780;28;20393;-58
2022/06/17 13:56:10;;;;;;;0.88;0.80;;;;;;;;;;5072611;28;20219;-57
2022/06/17 13:58:41;;;;;;;0.70;0.70;;;;;;;;;;5072484;28;20674;-58
2022/06/17 14:01:29;;;;;;;0.75;0.75;;;;;;;;;;5072646;28;20222;-58
2022/06/17 14:04:20;;;;;;;0.90;0.70;;;;;;;;;;5073172;28;20201;-58
2022/06/17 14:07:00;;;;;;;0.85;0.70;;;;;;;;;;5071113;28;20208;-58
2022/06/17 14:09:29;;;;;;;0.80;0.65;;;;;;;;;;5072376;28;20236;-58
2022/06/17 14:11:58;;;;;;;0.70;0.70;;;;;;;;;;5072791;28;20627;-58
2022/06/17 14:14:36;;;;;;;0.85;0.80;;;;;;;;;;5073132;28;20192;-58
2022/06/17 14:17:11;;;;;;;0.70;0.68;;;;;;;;;;5072618;28;20368;-58
2022/06/17 14:19:44;;;;;;;0.60;0.60;;;;;;;;;;5072275;28;20219;-58
2022/06/17 14:22:18;;;;;;;1.08;0.68;;;;;;;;;;5071819;28;20204;-58
2022/06/17 14:25:09;;;;;;;0.88;0.70;;;;;;;;;;5072192;28;20205;-58
2022/06/17 14:27:49;;;;;;;0.60;0.50;;;;;;;;;;5052443;28;20212;-58
2022/06/17 14:30:32;;;;;;;0.80;0.63;;;;;;;;;;5072560;28;20255;-59
2022/06/17 14:33:00;;;;;;;0.80;0.60;;;;;;;;;;5052505;28;20266;-58
2022/06/17 14:35:31;;;;;;;1.33;0.70;;;;;;;;;;5052360;28;20197;-57
2022/06/17 14:38:16;;;;;;;1.75;0.65;;;;;;;;;;5059859;28;20318;-55
2022/06/17 14:43:28;;;;;;;3.40;0.70;;;;;;;;;;5073281;28;20192;-55
2022/06/17 14:45:57;;;;;;;3.45;0.60;;;;;;;;;;5074196;28;20634;-55
2022/06/17 14:48:37;;;;;;;2.38;0.60;;;;;;;;;;5073984;28;20196;-55
2022/06/17 14:51:06;;;;;;;1.40;0.70;;;;;;;;;;5073900;28;20230;-54
2022/06/17 14:53:45;;;;;;;0.63;0.45;;;;;;;;;;5073177;28;20637;-54
2022/06/17 14:56:34;;;;;;;0.90;0.60;;;;;;;;;;5073608;28;20200;-54
2022/06/17 14:59:03;;;;;;;0.75;0.65;;;;;;;;;;5073344;28;20244;-54
2022/06/17 15:01:34;;;;;;;0.60;0.60;;;;;;;;;;5073087;28;20846;-55
2022/06/17 15:04:04;;;;;;;0.90;0.50;;;;;;;;;;5072909;28;20212;-56
2022/06/17 15:06:33;;;;;;;0.85;0.68;;;;;;;;;;5074159;28;20264;-55
2022/06/17 15:09:02;;;;;;;2.50;0.47;;;;;;;;;;5073556;28;20603;-55
2022/06/17 15:11:31;;;;;;;0.70;0.60;;;;;;;;;;5072851;28;20373;-55
2022/06/17 15:14:09;;;;;;;0.60;0.60;;;;;;;;;;5073282;28;20211;-55
2022/06/17 15:16:38;;;;;;;1.05;0.50;;;;;;;;;;5073784;28;20201;-54